createdAt,value
2018-07-28T00:00:46.186Z,19.30
2018-07-28T00:03:14.330Z,19.30
2018-07-28T00:05:42.494Z,19.30
2018-07-28T00:08:10.645Z,19.20
2018-07-28T00:10:38.809Z,19.20
2018-07-28T00:13:07.025Z,19.10
2018-07-28T00:15:35.193Z,19.20
2018-07-28T00:18:03.357Z,19.30
2018-07-28T00:20:31.518Z,19.20
2018-07-28T00:22:59.697Z,19.10
2018-07-28T00:25:32.082Z,19.00
2018-07-28T00:28:00.258Z,18.90
2018-07-28T00:30:28.437Z,18.80
2018-07-28T00:32:56.653Z,18.80
2018-07-28T00:35:24.826Z,18.70
2018-07-28T00:37:53.001Z,18.80
2018-07-28T00:40:21.172Z,18.90
2018-07-28T00:42:49.317Z,18.90
2018-07-28T00:45:17.491Z,19.00
2018-07-28T00:47:45.662Z,19.10
2018-07-28T00:50:13.806Z,19.10
2018-07-28T00:52:41.966Z,19.10
2018-07-28T00:55:10.126Z,19.20
2018-07-28T00:57:38.279Z,19.30
2018-07-28T01:00:07.439Z,19.40
2018-07-28T01:02:35.624Z,19.50
2018-07-28T01:05:04.206Z,19.50
2018-07-28T01:07:32.357Z,19.40
2018-07-28T01:10:00.497Z,19.30
2018-07-28T01:12:28.664Z,19.20
2018-07-28T01:14:57.021Z,19.10
2018-07-28T01:17:25.186Z,19.00
2018-07-28T01:19:53.344Z,18.90
2018-07-28T01:22:21.506Z,18.90
2018-07-28T01:24:49.702Z,18.80
2018-07-28T01:27:17.878Z,18.80
2018-07-28T01:29:46.038Z,18.70
2018-07-28T01:32:14.209Z,18.60
2018-07-28T01:34:42.375Z,18.40
2018-07-28T01:37:10.534Z,18.30
2018-07-28T01:39:38.680Z,18.20
2018-07-28T01:42:07.086Z,18.10
2018-07-28T01:44:35.242Z,18.10
2018-07-28T01:47:03.409Z,18.00
2018-07-28T01:49:31.597Z,17.90
2018-07-28T01:51:59.742Z,17.80
2018-07-28T01:54:27.910Z,17.70
2018-07-28T01:56:56.073Z,17.80
2018-07-28T01:59:24.226Z,17.90
2018-07-28T02:01:52.394Z,17.90
2018-07-28T02:04:20.550Z,18.00
2018-07-28T02:06:48.722Z,17.90
2018-07-28T02:09:16.866Z,17.80
2018-07-28T02:11:45.027Z,17.80
2018-07-28T02:14:13.166Z,17.90
2018-07-28T02:16:41.308Z,17.90
2018-07-28T02:19:09.458Z,18.00
2018-07-28T02:21:37.602Z,18.00
2018-07-28T02:24:05.758Z,18.10
2018-07-28T02:26:33.910Z,18.00
2018-07-28T02:29:02.059Z,18.00
2018-07-28T02:31:30.215Z,18.00
2018-07-28T02:33:58.366Z,18.00
2018-07-28T02:36:26.536Z,18.00
2018-07-28T02:38:54.687Z,18.10
2018-07-28T02:41:22.844Z,18.20
2018-07-28T02:43:50.994Z,18.40
2018-07-28T02:46:19.151Z,18.50
2018-07-28T02:48:47.302Z,18.50
2018-07-28T02:51:15.451Z,18.20
2018-07-28T02:53:44.714Z,18.00
2018-07-28T02:56:13.807Z,17.80
2018-07-28T03:01:10.561Z,17.70
2018-07-28T03:03:39.273Z,17.70
2018-07-28T03:06:07.418Z,17.70
2018-07-28T03:08:35.634Z,17.60
2018-07-28T03:11:03.786Z,17.50
2018-07-28T03:13:31.934Z,17.50
2018-07-28T03:16:00.091Z,17.50
2018-07-28T03:18:28.275Z,17.70
2018-07-28T03:20:56.442Z,17.80
2018-07-28T03:23:24.598Z,18.00
2018-07-28T03:25:52.750Z,18.20
2018-07-28T03:28:20.926Z,18.30
2018-07-28T03:30:49.092Z,18.30
2018-07-28T03:33:17.241Z,18.40
2018-07-28T03:35:45.390Z,18.40
2018-07-28T03:38:13.542Z,18.30
2018-07-28T03:40:41.710Z,18.20
2018-07-28T03:43:09.854Z,18.10
2018-07-28T03:45:38.028Z,18.00
2018-07-28T03:48:06.218Z,17.90
2018-07-28T03:50:34.402Z,17.90
2018-07-28T03:53:02.570Z,18.10
2018-07-28T03:55:30.742Z,18.00
2018-07-28T03:57:58.899Z,18.10
2018-07-28T04:00:27.066Z,18.20
2018-07-28T04:02:55.231Z,18.30
2018-07-28T04:05:23.382Z,18.40
2018-07-28T04:07:51.551Z,18.50
2018-07-28T04:10:19.719Z,18.50
2018-07-28T04:12:47.868Z,18.60
2018-07-28T04:15:16.039Z,18.70
2018-07-28T04:17:49.744Z,18.90
2018-07-28T04:20:17.890Z,19.10
2018-07-28T04:22:46.021Z,19.40
2018-07-28T04:25:14.198Z,19.70
2018-07-28T04:27:42.346Z,19.80
2018-07-28T04:30:10.510Z,19.80
2018-07-28T04:32:38.667Z,19.90
2018-07-28T04:35:07.128Z,19.90
2018-07-28T04:37:35.802Z,19.90
2018-07-28T04:42:32.168Z,20.00
2018-07-28T04:45:00.384Z,20.10
2018-07-28T04:47:28.514Z,20.10
2018-07-28T04:49:56.710Z,20.10
2018-07-28T04:52:24.886Z,20.10
2018-07-28T04:54:53.402Z,20.00
2018-07-28T04:57:21.570Z,20.00
2018-07-28T04:59:49.745Z,19.90
2018-07-28T05:02:17.926Z,19.90
2018-07-28T05:04:46.084Z,19.80
2018-07-28T05:07:14.300Z,19.80
2018-07-28T05:09:42.394Z,19.80
2018-07-28T05:12:10.586Z,19.80
2018-07-28T05:14:38.710Z,19.80
2018-07-28T05:17:06.902Z,19.80
2018-07-28T05:19:35.042Z,19.80
2018-07-28T05:22:03.212Z,19.80
2018-07-28T05:24:31.358Z,19.80
2018-07-28T05:26:59.516Z,19.90
2018-07-28T05:29:27.676Z,20.10
2018-07-28T05:31:55.821Z,20.20
2018-07-28T05:34:24.409Z,20.30
2018-07-28T05:36:52.629Z,20.40
2018-07-28T05:39:20.780Z,20.60
2018-07-28T05:41:48.934Z,20.70
2018-07-28T05:44:17.073Z,20.80
2018-07-28T05:46:45.225Z,20.90
2018-07-28T05:49:13.370Z,21.00
2018-07-28T05:51:41.522Z,21.10
2018-07-28T05:54:09.675Z,21.30
2018-07-28T05:56:37.846Z,21.50
2018-07-28T05:59:06.026Z,21.70
2018-07-28T06:01:34.197Z,21.90
2018-07-28T06:04:02.369Z,22.10
2018-07-28T06:06:30.531Z,22.40
2018-07-28T06:08:58.690Z,22.60
2018-07-28T06:11:26.835Z,22.80
2018-07-28T06:13:54.986Z,22.90
2018-07-28T06:16:23.147Z,23.00
2018-07-28T06:18:51.302Z,23.00
2018-07-28T06:21:19.471Z,23.00
2018-07-28T06:23:47.615Z,22.90
2018-07-28T06:26:15.762Z,22.90
2018-07-28T06:28:43.950Z,22.80
2018-07-28T06:31:12.103Z,22.70
2018-07-28T06:33:40.259Z,22.70
2018-07-28T06:36:08.422Z,22.60
2018-07-28T06:38:36.571Z,22.50
2018-07-28T06:41:04.797Z,22.40
2018-07-28T06:43:32.975Z,22.30
2018-07-28T06:46:01.114Z,22.20
2018-07-28T06:48:29.310Z,22.20
2018-07-28T06:50:57.481Z,22.10
2018-07-28T06:53:25.642Z,22.00
2018-07-28T06:55:53.813Z,22.00
2018-07-28T06:58:21.980Z,21.90
2018-07-28T07:00:50.125Z,21.80
2018-07-28T07:03:18.273Z,21.80
2018-07-28T07:05:46.427Z,21.80
2018-07-28T07:08:14.666Z,21.70
2018-07-28T07:10:42.810Z,21.70
2018-07-28T07:13:10.977Z,21.70
2018-07-28T07:15:39.126Z,21.70
2018-07-28T07:18:07.314Z,21.80
2018-07-28T07:20:35.474Z,21.80
2018-07-28T07:23:03.649Z,21.90
2018-07-28T07:25:31.801Z,21.90
2018-07-28T07:27:59.978Z,22.00
2018-07-28T07:30:28.213Z,22.10
2018-07-28T07:32:56.322Z,22.20
2018-07-28T07:35:24.481Z,22.30
2018-07-28T07:37:52.693Z,22.40
2018-07-28T07:40:20.842Z,22.40
2018-07-28T07:42:49.005Z,22.50
2018-07-28T07:45:17.186Z,22.50
2018-07-28T07:47:45.354Z,22.60
2018-07-28T07:50:13.618Z,22.60
2018-07-28T07:52:41.755Z,22.60
2018-07-28T07:55:09.919Z,22.60
2018-07-28T07:57:38.068Z,22.60
2018-07-28T08:00:06.749Z,22.60
2018-07-28T08:02:34.914Z,22.70
2018-07-28T08:05:03.093Z,22.70
2018-07-28T08:07:31.246Z,22.70
2018-07-28T08:09:59.414Z,22.70
2018-07-28T08:12:27.556Z,22.70
2018-07-28T08:14:55.702Z,22.70
2018-07-28T08:17:23.862Z,22.80
2018-07-28T08:19:52.041Z,22.90
2018-07-28T08:22:20.218Z,22.90
2018-07-28T08:24:48.382Z,23.00
2018-07-28T08:27:16.583Z,23.10
2018-07-28T08:29:53.462Z,23.10
2018-07-28T08:32:22.729Z,23.20
2018-07-28T08:34:55.603Z,23.10
2018-07-28T08:37:23.854Z,23.00
2018-07-28T08:40:02.416Z,23.00
2018-07-28T08:42:30.650Z,23.00
2018-07-28T08:44:58.814Z,23.00
2018-07-28T08:47:27.015Z,23.20
2018-07-28T08:49:55.166Z,23.40
2018-07-28T08:52:23.326Z,23.70
2018-07-28T08:54:51.493Z,24.10
2018-07-28T08:57:19.674Z,24.40
2018-07-28T08:59:47.829Z,24.70
2018-07-28T09:02:15.986Z,24.90
2018-07-28T09:04:44.132Z,25.00
2018-07-28T09:07:12.274Z,25.20
2018-07-28T09:09:40.430Z,25.30
2018-07-28T09:12:08.581Z,25.40
2018-07-28T09:14:36.790Z,25.60
2018-07-28T09:17:05.075Z,25.70
2018-07-28T09:19:33.266Z,25.80
2018-07-28T09:22:01.402Z,26.00
2018-07-28T09:24:29.548Z,26.10
2018-07-28T09:26:57.702Z,26.10
2018-07-28T09:29:25.842Z,26.10
2018-07-28T09:31:53.991Z,26.10
2018-07-28T09:34:22.294Z,26.10
2018-07-28T09:36:50.485Z,26.10
2018-07-28T09:39:18.641Z,26.10
2018-07-28T09:41:46.806Z,26.20
2018-07-28T09:44:14.966Z,26.40
2018-07-28T09:46:43.131Z,26.50
2018-07-28T09:49:11.313Z,26.60
2018-07-28T09:51:39.467Z,26.70
2018-07-28T09:54:07.765Z,26.70
2018-07-28T09:56:35.917Z,26.70
2018-07-28T09:59:04.067Z,26.70
2018-07-28T10:01:32.239Z,26.70
2018-07-28T10:04:00.386Z,27.00
2018-07-28T10:06:28.562Z,27.20
2018-07-28T10:08:56.708Z,27.50
2018-07-28T10:11:24.911Z,27.70
2018-07-28T10:13:53.065Z,27.80
2018-07-28T10:16:21.247Z,28.00
2018-07-28T10:18:49.405Z,28.00
2018-07-28T10:21:17.566Z,28.00
2018-07-28T10:23:45.709Z,28.00
2018-07-28T10:26:13.858Z,27.90
2018-07-28T10:28:41.997Z,27.80
2018-07-28T10:31:10.175Z,27.70
2018-07-28T10:33:38.314Z,27.70
2018-07-28T10:36:06.633Z,27.70
2018-07-28T10:38:34.794Z,27.70
2018-07-28T10:41:02.959Z,27.80
2018-07-28T10:43:31.147Z,27.90
2018-07-28T10:45:59.319Z,28.10
2018-07-28T10:48:27.486Z,28.40
2018-07-28T10:50:55.666Z,28.70
2018-07-28T10:53:23.843Z,28.70
2018-07-28T10:55:51.987Z,28.80
2018-07-28T10:58:20.162Z,28.90
2018-07-28T11:00:48.322Z,29.10
2018-07-28T11:03:16.489Z,29.30
2018-07-28T11:05:44.698Z,29.50
2018-07-28T11:08:12.833Z,29.70
2018-07-28T11:10:41.021Z,29.80
2018-07-28T11:13:09.206Z,29.80
2018-07-28T11:15:37.355Z,29.70
2018-07-28T11:18:05.623Z,29.70
2018-07-28T11:20:33.766Z,29.70
2018-07-28T11:23:01.906Z,29.90
2018-07-28T11:25:30.067Z,30.10
2018-07-28T11:27:58.214Z,30.40
2018-07-28T11:30:26.361Z,30.50
2018-07-28T11:33:05.935Z,30.40
2018-07-28T11:35:45.334Z,30.30
2018-07-28T11:38:25.020Z,30.30
2018-07-28T11:41:04.514Z,30.30
2018-07-28T11:43:44.086Z,30.30
2018-07-28T11:46:12.243Z,30.30
2018-07-28T11:48:40.734Z,30.30
2018-07-28T11:51:09.105Z,30.40
2018-07-28T11:53:37.242Z,30.30
2018-07-28T11:56:05.560Z,30.10
2018-07-28T11:58:34.135Z,30.10
2018-07-28T12:01:02.817Z,30.00
2018-07-28T12:03:31.402Z,30.00
2018-07-28T12:05:59.538Z,30.30
2018-07-28T12:08:27.698Z,30.40
2018-07-28T12:10:55.824Z,30.30
2018-07-28T12:13:23.994Z,30.20
2018-07-28T12:15:52.133Z,30.10
2018-07-28T12:18:20.422Z,29.90
2018-07-28T12:20:48.483Z,29.70
2018-07-28T12:23:16.645Z,29.50
2018-07-28T12:25:44.790Z,29.50
2018-07-28T12:28:12.937Z,29.40
2018-07-28T12:30:41.086Z,29.30
2018-07-28T12:33:09.255Z,29.10
2018-07-28T12:35:37.474Z,29.00
2018-07-28T12:38:05.650Z,28.90
2018-07-28T12:40:33.884Z,28.90
2018-07-28T12:43:02.058Z,28.80
2018-07-28T12:45:30.334Z,30.50
2018-07-28T12:47:58.619Z,28.80
2018-07-28T12:50:26.782Z,28.80
2018-07-28T12:52:54.950Z,28.70
2018-07-28T12:55:23.152Z,28.60
2018-07-28T12:57:51.280Z,28.40
2018-07-28T13:00:19.422Z,28.20
2018-07-28T13:02:47.613Z,28.00
2018-07-28T13:05:15.778Z,28.00
2018-07-28T13:07:43.931Z,28.20
2018-07-28T13:10:12.084Z,28.30
2018-07-28T13:12:40.239Z,28.50
2018-07-28T13:15:08.412Z,28.70
2018-07-28T13:17:36.573Z,28.90
2018-07-28T13:20:05.590Z,28.90
2018-07-28T13:22:33.771Z,29.00
2018-07-28T13:25:01.942Z,28.90
2018-07-28T13:27:30.095Z,28.90
2018-07-28T13:29:58.413Z,28.80
2018-07-28T13:32:26.470Z,28.80
2018-07-28T13:34:54.685Z,28.80
2018-07-28T13:37:22.794Z,28.70
2018-07-28T13:39:58.450Z,28.50
2018-07-28T13:42:26.633Z,28.40
2018-07-28T13:44:55.072Z,28.30
2018-07-28T13:47:23.270Z,28.20
2018-07-28T13:49:58.498Z,28.10
2018-07-28T13:52:33.314Z,28.10
2018-07-28T13:55:03.790Z,28.00
2018-07-28T13:57:37.780Z,27.90
2018-07-28T14:00:06.778Z,27.90
2018-07-28T14:02:34.962Z,27.80
2018-07-28T14:05:03.138Z,27.70
2018-07-28T14:07:31.302Z,27.60
2018-07-28T14:09:59.475Z,27.50
2018-07-28T14:12:27.632Z,27.50
2018-07-28T14:14:56.519Z,27.50
2018-07-28T14:17:24.619Z,27.50
2018-07-28T14:19:52.784Z,27.40
2018-07-28T14:22:20.998Z,27.40
2018-07-28T14:24:49.209Z,27.30
2018-07-28T14:27:17.438Z,27.30
2018-07-28T14:29:45.571Z,27.20
2018-07-28T14:32:13.734Z,27.20
2018-07-28T14:34:41.964Z,27.20
2018-07-28T14:37:10.118Z,27.10
2018-07-28T14:39:38.291Z,27.20
2018-07-28T14:42:06.520Z,27.20
2018-07-28T14:44:34.672Z,27.30
2018-07-28T14:47:02.831Z,27.30
2018-07-28T14:49:30.987Z,27.40
2018-07-28T14:51:59.219Z,27.30
2018-07-28T14:54:27.390Z,27.30
2018-07-28T14:56:55.582Z,27.30
2018-07-28T14:59:23.726Z,27.20
2018-07-28T15:01:51.882Z,27.10
2018-07-28T15:04:20.030Z,27.00
2018-07-28T15:06:48.191Z,27.10
2018-07-28T15:09:16.352Z,27.10
2018-07-28T15:11:44.515Z,27.10
2018-07-28T15:14:12.655Z,27.20
2018-07-28T15:16:40.829Z,27.10
2018-07-28T15:19:09.006Z,27.10
2018-07-28T15:21:37.188Z,27.00
2018-07-28T15:24:05.303Z,26.90
2018-07-28T15:26:33.465Z,26.90
2018-07-28T15:29:02.435Z,26.80
2018-07-28T15:31:30.602Z,26.80
2018-07-28T15:33:58.737Z,26.80
2018-07-28T15:36:26.874Z,26.80
2018-07-28T15:38:55.050Z,26.60
2018-07-28T15:41:23.212Z,26.50
2018-07-28T15:43:51.354Z,26.30
2018-07-28T15:46:19.506Z,26.20
2018-07-28T15:48:47.682Z,26.00
2018-07-28T15:51:15.833Z,25.80
2018-07-28T15:53:43.994Z,25.70
2018-07-28T15:56:12.286Z,25.60
2018-07-28T15:58:40.482Z,25.50
2018-07-28T16:01:08.619Z,25.50
2018-07-28T16:03:36.789Z,25.40
2018-07-28T16:06:05.109Z,25.20
2018-07-28T16:08:33.187Z,25.20
2018-07-28T16:11:01.346Z,25.10
2018-07-28T16:13:29.521Z,25.10
2018-07-28T16:15:57.678Z,25.10
2018-07-28T16:18:25.838Z,25.00
2018-07-28T16:20:54.011Z,25.00
2018-07-28T16:23:22.157Z,25.00
2018-07-28T16:25:50.352Z,24.90
2018-07-28T16:28:18.502Z,24.90
2018-07-28T16:30:46.651Z,24.80
2018-07-28T16:33:14.798Z,24.70
2018-07-28T16:35:42.961Z,24.70
2018-07-28T16:38:11.120Z,24.50
2018-07-28T16:40:39.310Z,24.50
2018-07-28T16:43:07.487Z,24.50
2018-07-28T16:45:35.627Z,24.50
2018-07-28T16:48:03.883Z,24.50
2018-07-28T16:50:32.050Z,24.50
2018-07-28T16:53:06.627Z,24.50
2018-07-28T16:55:37.001Z,24.50
2018-07-28T16:58:05.245Z,24.50
2018-07-28T17:00:33.418Z,24.50
2018-07-28T17:03:01.635Z,24.40
2018-07-28T17:05:29.796Z,24.30
2018-07-28T17:07:58.323Z,24.30
2018-07-28T17:10:26.496Z,24.30
2018-07-28T17:12:54.690Z,24.20
2018-07-28T17:15:22.842Z,24.20
2018-07-28T17:17:51.038Z,24.10
2018-07-28T17:20:19.199Z,24.10
2018-07-28T17:22:47.460Z,24.10
2018-07-28T17:25:15.538Z,24.00
2018-07-28T17:27:43.686Z,24.00
2018-07-28T17:30:11.849Z,24.00
2018-07-28T17:32:40.024Z,23.90
2018-07-28T17:35:08.198Z,23.90
2018-07-28T17:37:36.357Z,23.80
2018-07-28T17:40:04.506Z,23.80
2018-07-28T17:42:32.654Z,23.70
2018-07-28T17:45:00.834Z,23.70
2018-07-28T17:47:29.005Z,23.60
2018-07-28T17:49:57.181Z,23.50
2018-07-28T17:52:25.334Z,23.50
2018-07-28T17:54:53.487Z,23.40
2018-07-28T17:57:21.682Z,23.40
2018-07-28T17:59:49.830Z,23.30
2018-07-28T18:02:17.980Z,23.30
2018-07-28T18:04:46.126Z,23.30
2018-07-28T18:07:14.278Z,23.30
2018-07-28T18:09:42.438Z,23.20
2018-07-28T18:12:10.591Z,23.20
2018-07-28T18:14:38.755Z,23.20
2018-07-28T18:17:06.910Z,23.10
2018-07-28T18:19:35.106Z,23.10
2018-07-28T18:22:03.206Z,23.10
2018-07-28T18:24:31.368Z,23.10
2018-07-28T18:26:59.518Z,23.10
2018-07-28T18:29:27.654Z,23.00
2018-07-28T18:31:55.802Z,23.00
2018-07-28T18:34:23.962Z,22.90
2018-07-28T18:36:52.098Z,22.90
2018-07-28T18:39:20.290Z,22.80
2018-07-28T18:41:48.462Z,22.80
2018-07-28T18:44:16.570Z,22.70
2018-07-28T18:46:44.742Z,22.80
2018-07-28T18:49:12.907Z,22.70
2018-07-28T18:51:41.081Z,22.70
2018-07-28T18:54:09.235Z,22.70
2018-07-28T18:56:37.414Z,22.60
2018-07-28T18:59:05.655Z,22.60
2018-07-28T19:01:33.870Z,22.60
2018-07-28T19:04:02.090Z,22.60
2018-07-28T19:06:30.278Z,22.50
2018-07-28T19:09:03.968Z,22.50
2018-07-28T19:11:32.130Z,22.50
2018-07-28T19:14:05.687Z,22.50
2018-07-28T19:16:33.966Z,22.40
2018-07-28T19:19:07.486Z,22.40
2018-07-28T19:21:35.660Z,22.40
2018-07-28T19:24:04.303Z,22.40
2018-07-28T19:26:32.723Z,22.40
2018-07-28T19:29:06.233Z,22.40
2018-07-28T19:34:02.305Z,22.30
2018-07-28T19:36:35.802Z,22.40
2018-07-28T19:39:05.946Z,22.30
2018-07-28T19:41:39.466Z,22.20
2018-07-28T19:44:07.625Z,22.20
2018-07-28T19:46:35.786Z,22.20
2018-07-28T19:49:03.942Z,22.10
2018-07-28T19:51:32.171Z,21.90
2018-07-28T19:54:00.331Z,21.80
2018-07-28T19:56:28.482Z,21.80
2018-07-28T19:58:56.634Z,21.70
2018-07-28T20:01:24.801Z,21.70
2018-07-28T20:03:52.950Z,21.60
2018-07-28T20:06:21.106Z,21.60
2018-07-28T20:08:49.250Z,21.60
2018-07-28T20:11:17.406Z,21.60
2018-07-28T20:13:45.773Z,21.50
2018-07-28T20:16:13.881Z,21.50
2018-07-28T20:18:42.031Z,21.40
2018-07-28T20:21:10.279Z,21.30
2018-07-28T20:23:38.714Z,21.20
2018-07-28T20:26:06.912Z,21.10
2018-07-28T20:28:35.070Z,21.00
2018-07-28T20:31:03.226Z,21.00
2018-07-28T20:33:31.398Z,20.70
2018-07-28T20:35:59.560Z,20.30
2018-07-28T20:38:27.706Z,19.90
2018-07-28T20:40:55.862Z,19.80
2018-07-28T20:43:24.033Z,19.90
2018-07-28T20:45:52.186Z,20.00
2018-07-28T20:48:20.369Z,20.10
2018-07-28T20:50:48.498Z,20.10
2018-07-28T20:55:44.566Z,20.20
2018-07-28T20:58:12.986Z,19.80
2018-07-28T21:00:41.163Z,19.50
2018-07-28T21:03:09.359Z,19.20
2018-07-28T21:05:37.546Z,19.20
2018-07-28T21:08:05.755Z,19.20
2018-07-28T21:10:33.935Z,19.20
2018-07-28T21:13:02.141Z,19.30
2018-07-28T21:15:30.313Z,19.40
2018-07-28T21:17:58.479Z,19.50
2018-07-28T21:20:26.665Z,19.50
2018-07-28T21:22:54.827Z,19.60
2018-07-28T21:25:22.978Z,19.60
2018-07-28T21:27:51.179Z,19.60
2018-07-28T21:30:19.442Z,19.60
2018-07-28T21:32:47.666Z,19.70
2018-07-28T21:35:15.826Z,19.80
2018-07-28T21:37:43.978Z,19.90
2018-07-28T21:40:12.126Z,19.90
2018-07-28T21:42:40.274Z,19.90
2018-07-28T21:45:08.442Z,19.90
2018-07-28T21:47:36.617Z,19.90
2018-07-28T21:50:05.165Z,19.90
2018-07-28T21:52:33.314Z,19.90
2018-07-28T21:55:01.476Z,19.90
2018-07-28T21:57:29.627Z,19.80
2018-07-28T21:59:57.830Z,19.80
2018-07-28T22:02:25.978Z,19.80
2018-07-28T22:04:54.140Z,19.80
2018-07-28T22:07:22.286Z,19.80
2018-07-28T22:09:50.446Z,19.80
2018-07-28T22:12:18.626Z,19.80
2018-07-28T22:14:46.783Z,19.70
2018-07-28T22:17:14.936Z,19.60
2018-07-28T22:19:43.086Z,19.40
2018-07-28T22:22:11.302Z,19.20
2018-07-28T22:24:39.453Z,19.10
2018-07-28T22:27:07.630Z,19.00
2018-07-28T22:29:35.823Z,19.10
2018-07-28T22:32:03.961Z,19.10
2018-07-28T22:34:32.134Z,19.20
2018-07-28T22:37:00.297Z,19.20
2018-07-28T22:39:28.448Z,19.20
2018-07-28T22:41:56.585Z,19.10
2018-07-28T22:44:24.789Z,18.90
2018-07-28T22:46:52.953Z,19.00
2018-07-28T22:49:21.106Z,19.00
2018-07-28T22:51:50.706Z,19.00
2018-07-28T22:54:18.862Z,19.10
2018-07-28T22:56:48.766Z,19.20
2018-07-28T22:59:16.925Z,19.30
2018-07-28T23:01:45.109Z,19.10
2018-07-28T23:04:13.274Z,18.90
2018-07-28T23:06:41.419Z,18.70
2018-07-28T23:09:10.918Z,18.60
2018-07-28T23:11:39.114Z,18.40
2018-07-28T23:14:07.887Z,18.40
2018-07-28T23:16:36.031Z,18.40
2018-07-28T23:19:04.178Z,18.50
2018-07-28T23:21:32.361Z,18.60
2018-07-28T23:24:00.537Z,18.80
2018-07-28T23:26:28.767Z,18.90
2018-07-28T23:28:56.946Z,19.00
2018-07-28T23:31:26.140Z,19.10
2018-07-28T23:33:54.366Z,19.10
2018-07-28T23:36:22.542Z,19.20
2018-07-28T23:38:50.683Z,19.30
2018-07-28T23:41:18.844Z,19.20
2018-07-28T23:43:47.003Z,19.20
2018-07-28T23:46:15.154Z,19.20
2018-07-28T23:48:43.438Z,19.30
2018-07-28T23:51:11.622Z,19.30
2018-07-28T23:53:39.766Z,19.20
2018-07-28T23:56:07.914Z,19.10
2018-07-28T23:58:36.075Z,19.10
